Time;durP1;ratioP1;P1;durP2;ratioP2;P2;SDS_P1;SDS_P2;PMS_P1;PMS_P2;Temp;Humidity;BMP_temperature;BMP_pressure;BME280_temperature;BME280_humidity;BME280_pressure;Samples;Min_cycle;Max_cycle;Signal;HPM_P1;HPM_P2
2022/07/24 00:01:33;;;;;;;0.20;0.10;;;;;;;;;;4873188;29;21619;-87
2022/07/24 00:04:03;;;;;;;0.20;0.10;;;;;;;;;;4863548;29;20514;-88
2022/07/24 00:06:29;;;;;;;0.20;0.10;;;;;;;;;;4858142;29;20499;-88
2022/07/24 00:08:55;;;;;;;0.20;0.10;;;;;;;;;;4853494;29;20095;-86
2022/07/24 00:11:21;;;;;;;0.20;0.10;;;;;;;;;;4891713;29;20487;-87
2022/07/24 00:13:47;;;;;;;0.20;0.10;;;;;;;;;;4869575;29;20055;-88
2022/07/24 00:16:13;;;;;;;0.20;0.10;;;;;;;;;;4887241;29;20073;-88
2022/07/24 00:18:39;;;;;;;0.20;0.10;;;;;;;;;;4861015;29;20044;-87
2022/07/24 00:21:06;;;;;;;0.20;0.10;;;;;;;;;;4877271;29;20633;-87
2022/07/24 00:23:32;;;;;;;0.20;0.10;;;;;;;;;;4869676;29;20040;-86
2022/07/24 00:25:58;;;;;;;0.20;0.10;;;;;;;;;;4885526;29;20507;-87
2022/07/24 00:28:24;;;;;;;0.20;0.10;;;;;;;;;;4877833;29;20043;-88
2022/07/24 00:30:50;;;;;;;0.20;0.10;;;;;;;;;;4873875;29;20126;-87
2022/07/24 00:33:16;;;;;;;0.20;0.10;;;;;;;;;;4858624;29;20108;-86
2022/07/24 00:35:43;;;;;;;0.20;0.10;;;;;;;;;;4872975;29;20048;-88
2022/07/24 00:38:09;;;;;;;0.20;0.10;;;;;;;;;;4871754;29;20044;-88
2022/07/24 00:40:35;;;;;;;0.20;0.10;;;;;;;;;;4875048;29;20049;-88
2022/07/24 00:43:02;;;;;;;0.20;0.10;;;;;;;;;;4860784;29;20499;-88
2022/07/24 00:45:28;;;;;;;0.20;0.10;;;;;;;;;;4874187;29;20128;-88
2022/07/24 00:47:54;;;;;;;0.20;0.10;;;;;;;;;;4861498;29;20515;-89
2022/07/24 00:50:21;;;;;;;0.20;0.10;;;;;;;;;;4885847;29;20136;-88
2022/07/24 00:52:47;;;;;;;0.20;0.10;;;;;;;;;;4870991;29;20053;-88
2022/07/24 00:55:13;;;;;;;0.20;0.10;;;;;;;;;;4872785;29;20678;-88
2022/07/24 00:57:43;;;;;;;0.20;0.10;;;;;;;;;;4868671;29;20619;-87
2022/07/24 01:00:10;;;;;;;0.50;0.45;;;;;;;;;;4881500;29;20058;-88
2022/07/24 01:02:39;;;;;;;0.20;0.10;;;;;;;;;;4868933;29;20111;-88
2022/07/24 01:05:05;;;;;;;0.20;0.10;;;;;;;;;;4883278;29;20055;-87
2022/07/24 01:07:31;;;;;;;0.20;0.10;;;;;;;;;;4872519;29;20452;-87
2022/07/24 01:09:57;;;;;;;0.20;0.10;;;;;;;;;;4869722;29;20570;-87
2022/07/24 01:12:24;;;;;;;0.20;0.10;;;;;;;;;;4888102;29;20478;-88
2022/07/24 01:14:50;;;;;;;0.20;0.10;;;;;;;;;;4889726;29;20044;-88
2022/07/24 01:17:16;;;;;;;0.20;0.15;;;;;;;;;;4857749;29;20071;-88
2022/07/24 01:19:42;;;;;;;0.20;0.10;;;;;;;;;;4878002;29;20036;-89
2022/07/24 01:22:08;;;;;;;0.28;0.22;;;;;;;;;;4858664;29;20050;-87
2022/07/24 01:24:34;;;;;;;0.20;0.10;;;;;;;;;;4884803;29;20044;-88
2022/07/24 01:27:00;;;;;;;0.20;0.10;;;;;;;;;;4854325;29;20542;-88
2022/07/24 01:29:26;;;;;;;0.20;0.10;;;;;;;;;;4858091;29;20047;-88
2022/07/24 01:31:52;;;;;;;0.20;0.10;;;;;;;;;;4853845;29;20055;-87
2022/07/24 01:34:18;;;;;;;0.20;0.10;;;;;;;;;;4868035;29;20495;-89
2022/07/24 01:36:45;;;;;;;0.20;0.10;;;;;;;;;;4887249;29;20040;-90
2022/07/24 01:39:11;;;;;;;0.20;0.10;;;;;;;;;;4875015;29;20503;-88
2022/07/24 01:41:37;;;;;;;0.20;0.10;;;;;;;;;;4874645;29;20112;-88
2022/07/24 01:44:03;;;;;;;0.20;0.10;;;;;;;;;;4871903;29;20036;-87
2022/07/24 01:46:29;;;;;;;0.20;0.10;;;;;;;;;;4857749;29;20675;-87
2022/07/24 01:48:55;;;;;;;0.20;0.10;;;;;;;;;;4874028;29;20458;-89
2022/07/24 01:51:21;;;;;;;0.20;0.10;;;;;;;;;;4859289;29;20045;-88
2022/07/24 01:53:47;;;;;;;0.20;0.15;;;;;;;;;;4871977;29;20100;-88
2022/07/24 01:56:13;;;;;;;0.20;0.10;;;;;;;;;;4861047;29;20081;-88
2022/07/24 01:58:39;;;;;;;0.20;0.10;;;;;;;;;;4857006;29;20551;-89
2022/07/24 02:01:06;;;;;;;0.20;0.10;;;;;;;;;;4860096;29;20127;-88
2022/07/24 02:03:32;;;;;;;0.20;0.10;;;;;;;;;;4886736;29;20055;-88
2022/07/24 02:05:58;;;;;;;0.20;0.10;;;;;;;;;;4880109;29;20474;-88
2022/07/24 02:08:25;;;;;;;0.20;0.10;;;;;;;;;;4887821;29;20491;-89
2022/07/24 02:10:51;;;;;;;0.20;0.10;;;;;;;;;;4885208;29;20609;-89
2022/07/24 02:13:17;;;;;;;0.20;0.10;;;;;;;;;;4860780;29;20044;-89
2022/07/24 02:15:43;;;;;;;0.20;0.10;;;;;;;;;;4875045;29;20133;-89
2022/07/24 02:18:09;;;;;;;0.20;0.10;;;;;;;;;;4888503;29;20434;-89
2022/07/24 02:20:36;;;;;;;0.20;0.10;;;;;;;;;;4884790;29;20039;-88
2022/07/24 02:23:02;;;;;;;0.20;0.10;;;;;;;;;;4874574;29;20036;-89
2022/07/24 02:25:28;;;;;;;0.20;0.10;;;;;;;;;;4871624;29;20071;-88
2022/07/24 02:27:57;;;;;;;0.20;0.10;;;;;;;;;;4867791;29;20044;-87
2022/07/24 02:35:27;;;;;;;0.20;0.10;;;;;;;;;;4894115;29;20055;-87
2022/07/24 02:37:53;;;;;;;0.20;0.10;;;;;;;;;;4894211;29;20530;-86
2022/07/24 02:40:43;;;;;;;;;;;;;;;;;;;;;
2022/07/24 02:43:47;;;;;;;;;;;;;;;;;;;;;
2022/07/24 02:46:49;;;;;;;0.20;0.10;;;;;;;;;;4894760;29;20062;-86
2022/07/24 02:49:27;;;;;;;0.20;0.10;;;;;;;;;;4866888;29;20155;-86
2022/07/24 02:52:17;;;;;;;0.20;0.10;;;;;;;;;;4885114;29;20109;-87
2022/07/24 02:54:52;;;;;;;0.20;0.10;;;;;;;;;;4876634;29;20088;-87
2022/07/24 02:57:27;;;;;;;0.30;0.17;;;;;;;;;;4870576;29;20119;-86
2022/07/24 03:00:19;;;;;;;0.20;0.10;;;;;;;;;;4853316;29;20076;-86
2022/07/24 03:02:46;;;;;;;0.20;0.10;;;;;;;;;;4865352;29;20088;-86
2022/07/24 03:05:12;;;;;;;0.20;0.13;;;;;;;;;;4867067;29;20543;-86
2022/07/24 03:07:50;;;;;;;0.20;0.10;;;;;;;;;;4856403;29;20672;-87
2022/07/24 03:10:27;;;;;;;0.20;0.10;;;;;;;;;;4852864;29;20052;-86
2022/07/24 03:13:19;;;;;;;0.20;0.10;;;;;;;;;;4887295;29;20164;-87
2022/07/24 03:22:13;;;;;;;0.20;0.10;;;;;;;;;;4880452;29;20728;-87
2022/07/24 03:24:56;;;;;;;0.20;0.10;;;;;;;;;;4871956;29;20081;-87
2022/07/24 03:27:28;;;;;;;0.20;0.10;;;;;;;;;;4878333;29;20052;-85
2022/07/24 03:29:54;;;;;;;0.20;0.10;;;;;;;;;;4894402;29;20159;-86
2022/07/24 03:32:27;;;;;;;0.20;0.10;;;;;;;;;;4865470;29;20036;-87
2022/07/24 03:35:05;;;;;;;;;;;;;;;;;;4894811;29;20036;-87
2022/07/24 03:37:50;;;;;;;0.20;0.10;;;;;;;;;;4891914;29;19964;-85
2022/07/24 03:40:22;;;;;;;0.20;0.10;;;;;;;;;;4892831;29;20049;-88
2022/07/24 03:42:56;;;;;;;0.20;0.10;;;;;;;;;;4899252;29;20050;-87
2022/07/24 03:45:28;;;;;;;0.20;0.10;;;;;;;;;;4892196;29;20044;-85
2022/07/24 03:47:57;;;;;;;0.20;0.10;;;;;;;;;;4869225;29;20037;-87
2022/07/24 03:50:38;;;;;;;0.20;0.10;;;;;;;;;;4872194;29;20056;-88
2022/07/24 03:53:13;;;;;;;0.20;0.10;;;;;;;;;;4886054;29;20057;-87
2022/07/24 03:55:39;;;;;;;0.20;0.10;;;;;;;;;;4886598;29;20045;-86
2022/07/24 03:58:20;;;;;;;0.20;0.20;;;;;;;;;;4890543;29;20040;-88
2022/07/24 04:00:49;;;;;;;0.20;0.10;;;;;;;;;;4888557;29;20049;-87
2022/07/24 04:13:49;;;;;;;0.20;0.10;;;;;;;;;;4861542;29;21254;-87
2022/07/24 04:16:16;;;;;;;0.20;0.10;;;;;;;;;;4873172;29;20514;-85
2022/07/24 04:18:51;;;;;;;0.20;0.08;;;;;;;;;;4857896;29;20070;-88
2022/07/24 04:21:20;;;;;;;0.20;0.10;;;;;;;;;;4885898;29;20432;-86
2022/07/24 04:24:46;;;;;;;0.20;0.10;;;;;;;;;;4875429;29;20474;-86
2022/07/24 04:30:36;;;;;;;0.20;0.10;;;;;;;;;;4932495;23;20403;-86
2022/07/24 04:34:00;;;;;;;;;;;;;;;;;;;;;
2022/07/24 04:36:35;;;;;;;0.20;0.10;;;;;;;;;;4865933;29;20072;-87
2022/07/24 04:49:45;;;;;;;;;;;;;;;;;;;;;
2022/07/24 04:52:27;;;;;;;;;;;;;;;;;;;;;
2022/07/24 04:55:14;;;;;;;0.20;0.10;;;;;;;;;;4835205;29;20062;-86
2022/07/24 04:58:03;;;;;;;0.20;0.10;;;;;;;;;;4869820;29;20511;-88
2022/07/24 05:00:30;;;;;;;0.20;0.10;;;;;;;;;;4876400;29;20154;-86
2022/07/24 05:03:31;;;;;;;0.20;0.10;;;;;;;;;;4889607;29;20048;-86
2022/07/24 05:06:35;;;;;;;0.20;0.10;;;;;;;;;;4892464;29;20044;-86
2022/07/24 05:09:06;;;;;;;0.20;0.10;;;;;;;;;;4887167;29;20088;-87
2022/07/24 05:11:43;;;;;;;0.20;0.10;;;;;;;;;;4860133;29;20048;-86
2022/07/24 05:17:56;;;;;;;0.20;0.10;;;;;;;;;;4853966;29;20085;-86
2022/07/24 05:23:31;;;;;;;;;;;;;;;;;;;;;
2022/07/24 05:26:03;;;;;;;0.20;0.10;;;;;;;;;;4890462;29;20044;-87
2022/07/24 05:28:29;;;;;;;0.20;0.10;;;;;;;;;;4893935;29;20039;-86
2022/07/24 05:31:04;;;;;;;0.20;0.10;;;;;;;;;;4861718;29;20565;-87
2022/07/24 05:34:01;;;;;;;0.20;0.10;;;;;;;;;;4894596;29;20134;-87
2022/07/24 05:36:34;;;;;;;0.20;0.10;;;;;;;;;;4879066;29;20036;-90
2022/07/24 05:39:03;;;;;;;0.20;0.10;;;;;;;;;;4888796;29;20036;-87
2022/07/24 05:41:29;;;;;;;0.20;0.10;;;;;;;;;;4883749;29;20056;-86
2022/07/24 05:44:04;;;;;;;0.20;0.10;;;;;;;;;;4878592;29;20074;-91
2022/07/24 05:46:53;;;;;;;0.20;0.10;;;;;;;;;;4886473;29;20040;-88
2022/07/24 05:49:22;;;;;;;0.20;0.10;;;;;;;;;;4862114;29;20048;-88
2022/07/24 05:51:57;;;;;;;0.20;0.10;;;;;;;;;;4875926;29;20051;-86
2022/07/24 05:54:32;;;;;;;0.20;0.10;;;;;;;;;;4875388;29;20048;-89
2022/07/24 05:57:03;;;;;;;0.20;0.10;;;;;;;;;;4892512;29;20059;-88
2022/07/24 05:59:33;;;;;;;0.20;0.10;;;;;;;;;;4866365;29;20052;-90
2022/07/24 06:02:08;;;;;;;0.20;0.10;;;;;;;;;;4887989;29;20655;-87
2022/07/24 06:04:43;;;;;;;0.20;0.10;;;;;;;;;;4872067;29;20048;-88
2022/07/24 06:07:29;;;;;;;0.20;0.08;;;;;;;;;;4861843;29;20037;-88
2022/07/24 06:10:03;;;;;;;0.20;0.10;;;;;;;;;;4869177;29;20575;-86
2022/07/24 06:12:34;;;;;;;0.20;0.10;;;;;;;;;;4882996;29;20214;-90
2022/07/24 06:15:04;;;;;;;0.20;0.10;;;;;;;;;;4850021;29;20044;-87
2022/07/24 06:17:38;;;;;;;0.20;0.10;;;;;;;;;;4867161;29;20040;-87
2022/07/24 06:20:15;;;;;;;0.20;0.10;;;;;;;;;;4876692;29;20188;-87
2022/07/24 06:22:45;;;;;;;0.20;0.10;;;;;;;;;;4874020;29;20044;-88
2022/07/24 06:25:11;;;;;;;0.20;0.10;;;;;;;;;;4868395;29;20135;-87
2022/07/24 06:27:57;;;;;;;0.20;0.10;;;;;;;;;;4888238;29;20048;-84
2022/07/24 06:30:24;;;;;;;0.20;0.10;;;;;;;;;;4869871;29;20098;-88
2022/07/24 06:33:05;;;;;;;0.20;0.10;;;;;;;;;;4883169;29;20047;-87
2022/07/24 06:35:37;;;;;;;0.20;0.10;;;;;;;;;;4866709;29;20565;-88
2022/07/24 06:38:03;;;;;;;0.20;0.10;;;;;;;;;;4864211;29;20058;-86
2022/07/24 06:40:37;;;;;;;0.20;0.10;;;;;;;;;;4883585;29;20515;-88
2022/07/24 06:43:15;;;;;;;0.20;0.10;;;;;;;;;;4867773;29;20787;-88
2022/07/24 06:46:21;;;;;;;0.20;0.10;;;;;;;;;;4866467;29;20080;-85
2022/07/24 06:48:53;;;;;;;0.20;0.17;;;;;;;;;;4883268;29;20055;-89
2022/07/24 06:51:19;;;;;;;0.40;0.40;;;;;;;;;;4871692;29;20046;-90
2022/07/24 06:53:51;;;;;;;0.20;0.10;;;;;;;;;;4869508;29;20044;-88
2022/07/24 06:56:35;;;;;;;0.20;0.10;;;;;;;;;;4887810;29;20047;-90
2022/07/24 06:59:01;;;;;;;0.20;0.15;;;;;;;;;;4880976;29;20040;-91
2022/07/24 07:01:48;;;;;;;0.20;0.10;;;;;;;;;;4890224;29;20143;-90
2022/07/24 07:04:26;;;;;;;0.20;0.10;;;;;;;;;;4878504;29;20510;-85
2022/07/24 07:07:12;;;;;;;0.20;0.10;;;;;;;;;;4841721;29;20076;-87
2022/07/24 07:09:38;;;;;;;0.20;0.10;;;;;;;;;;4851205;29;20084;-88
2022/07/24 07:12:04;;;;;;;0.20;0.10;;;;;;;;;;4832070;29;20160;-89
2022/07/24 07:14:33;;;;;;;0.20;0.10;;;;;;;;;;4848293;29;20068;-91
2022/07/24 07:17:05;;;;;;;0.50;0.50;;;;;;;;;;4855493;29;20150;-88
2022/07/24 07:19:52;;;;;;;0.20;0.20;;;;;;;;;;4855111;29;20052;-88
2022/07/24 07:22:41;;;;;;;0.30;0.30;;;;;;;;;;4849111;29;20171;-89
2022/07/24 07:25:08;;;;;;;1.95;0.40;;;;;;;;;;4855779;29;20110;-90
2022/07/24 07:27:35;;;;;;;0.20;0.10;;;;;;;;;;4854006;29;20052;-88
2022/07/24 07:30:02;;;;;;;0.20;0.10;;;;;;;;;;4853971;29;20218;-89
2022/07/24 07:32:28;;;;;;;0.20;0.13;;;;;;;;;;4853570;29;20048;-88
2022/07/24 07:35:03;;;;;;;0.20;0.10;;;;;;;;;;4862799;29;20059;-90
2022/07/24 07:37:37;;;;;;;0.20;0.10;;;;;;;;;;4888773;29;20254;-87
2022/07/24 07:40:29;;;;;;;0.20;0.10;;;;;;;;;;4861860;29;20561;-90
2022/07/24 07:42:58;;;;;;;0.20;0.10;;;;;;;;;;4874984;29;20050;-90
2022/07/24 07:45:24;;;;;;;0.20;0.13;;;;;;;;;;4854065;29;20028;-86
2022/07/24 07:47:50;;;;;;;0.40;0.20;;;;;;;;;;4878445;29;20070;-86
2022/07/24 07:50:36;;;;;;;0.35;0.30;;;;;;;;;;4859659;29;21488;-91
2022/07/24 07:53:20;;;;;;;0.25;0.15;;;;;;;;;;4909459;29;20049;-89
2022/07/24 07:55:51;;;;;;;0.30;0.22;;;;;;;;;;4857903;29;20048;-88
2022/07/24 07:58:23;;;;;;;0.32;0.13;;;;;;;;;;4872987;29;20044;-89
2022/07/24 08:00:52;;;;;;;;;;;;;;;;;;4891558;29;20040;-88
2022/07/24 08:03:46;;;;;;;0.55;0.30;;;;;;;;;;4879085;29;20310;-90
2022/07/24 08:06:14;;;;;;;0.30;0.30;;;;;;;;;;4881294;29;20040;-89
2022/07/24 08:08:43;;;;;;;0.20;0.10;;;;;;;;;;4877617;29;20046;-89
2022/07/24 08:11:30;;;;;;;0.20;0.10;;;;;;;;;;4873633;29;20364;-91
2022/07/24 08:13:56;;;;;;;0.20;0.10;;;;;;;;;;4889365;29;20044;-90
2022/07/24 08:16:41;;;;;;;;;;;;;;;;;;;;;
2022/07/24 08:19:10;;;;;;;0.25;0.25;;;;;;;;;;4890201;29;20067;-90
2022/07/24 08:21:46;;;;;;;0.20;0.10;;;;;;;;;;4874182;29;20055;-92
2022/07/24 08:24:32;;;;;;;0.20;0.10;;;;;;;;;;4864504;29;20079;-88
2022/07/24 08:26:59;;;;;;;0.20;0.10;;;;;;;;;;4874184;29;20084;-89
2022/07/24 08:29:25;;;;;;;0.20;0.10;;;;;;;;;;4876968;29;20079;-92
2022/07/24 08:31:54;;;;;;;0.55;0.40;;;;;;;;;;4888621;29;20138;-89
2022/07/24 08:34:20;;;;;;;0.20;0.10;;;;;;;;;;4862253;29;20096;-89
2022/07/24 08:36:46;;;;;;;0.20;0.13;;;;;;;;;;4861281;29;20460;-87
2022/07/24 08:39:33;;;;;;;0.20;0.10;;;;;;;;;;4970145;23;20413;-89
2022/07/24 08:42:31;;;;;;;0.20;0.10;;;;;;;;;;4899279;29;20045;-90
2022/07/24 08:45:27;;;;;;;0.22;0.22;;;;;;;;;;4869887;29;20060;-90
2022/07/24 08:48:12;;;;;;;1.85;0.30;;;;;;;;;;4857421;29;20056;-90
2022/07/24 08:51:01;;;;;;;0.20;0.10;;;;;;;;;;4844928;29;20053;-89
2022/07/24 08:53:55;;;;;;;;;;;;;;;;;;;;;
2022/07/24 08:56:30;;;;;;;0.28;0.28;;;;;;;;;;4859306;29;20153;-89
2022/07/24 08:59:17;;;;;;;0.40;0.40;;;;;;;;;;4841559;29;20131;-90
2022/07/24 09:02:02;;;;;;;0.20;0.10;;;;;;;;;;4844857;29;20104;-92
2022/07/24 09:08:14;;;;;;;;;;;;;;;;;;;;;
2022/07/24 09:10:59;;;;;;;;;;;;;;;;;;4877003;29;20052;-92
2022/07/24 09:19:55;;;;;;;0.20;0.10;;;;;;;;;;4873525;29;20059;-89
2022/07/24 09:22:46;;;;;;;0.20;0.10;;;;;;;;;;4856271;29;20488;-90
2022/07/24 09:25:21;;;;;;;0.20;0.10;;;;;;;;;;4893652;29;20131;-88
2022/07/24 09:28:06;;;;;;;0.20;0.10;;;;;;;;;;4891209;29;20046;-91
2022/07/24 09:30:37;;;;;;;0.55;0.32;;;;;;;;;;4874095;29;20096;-89
2022/07/24 09:33:11;;;;;;;0.30;0.15;;;;;;;;;;4883853;29;20095;-91
2022/07/24 09:36:10;;;;;;;0.20;0.10;;;;;;;;;;4892093;29;20511;-89
2022/07/24 09:39:20;;;;;;;0.20;0.10;;;;;;;;;;4858878;29;20120;-90
2022/07/24 09:42:14;;;;;;;0.35;0.20;;;;;;;;;;4801684;29;20078;-87
2022/07/24 09:45:00;;;;;;;0.20;0.10;;;;;;;;;;4801382;29;20057;-90
2022/07/24 09:49:13;;;;;;;0.20;0.10;;;;;;;;;;4814914;29;20078;-90
2022/07/24 09:52:10;;;;;;;0.20;0.10;;;;;;;;;;4783489;29;20146;-91
2022/07/24 10:11:13;;;;;;;0.20;0.10;;;;;;;;;;4918992;29;20111;-89
2022/07/24 10:13:49;;;;;;;0.20;0.10;;;;;;;;;;4911370;29;20035;-91
2022/07/24 10:16:36;;;;;;;0.20;0.10;;;;;;;;;;4893159;29;20108;-91
2022/07/24 10:19:14;;;;;;;0.20;0.15;;;;;;;;;;4908154;29;20239;-92
2022/07/24 10:21:50;;;;;;;0.20;0.10;;;;;;;;;;4918766;23;20040;-89
2022/07/24 10:24:31;;;;;;;0.20;0.10;;;;;;;;;;4887950;29;20384;-86
2022/07/24 10:27:05;;;;;;;0.20;0.10;;;;;;;;;;4889793;29;20496;-89
2022/07/24 10:29:37;;;;;;;0.20;0.10;;;;;;;;;;4874558;29;20040;-92
2022/07/24 10:32:18;;;;;;;0.20;0.10;;;;;;;;;;4869556;29;20380;-88
2022/07/24 10:35:04;;;;;;;0.20;0.10;;;;;;;;;;4869358;29;20044;-92
2022/07/24 10:38:05;;;;;;;0.20;0.10;;;;;;;;;;4881978;29;20503;-93
2022/07/24 10:40:51;;;;;;;0.20;0.10;;;;;;;;;;4872052;29;20418;-89
2022/07/24 10:43:29;;;;;;;0.20;0.10;;;;;;;;;;5389266;23;20052;-91
2022/07/24 10:46:30;;;;;;;0.20;0.10;;;;;;;;;;4871724;29;20053;-91
2022/07/24 10:52:53;;;;;;;0.30;0.10;;;;;;;;;;4789636;29;20096;-91
2022/07/24 10:55:47;;;;;;;0.50;0.50;;;;;;;;;;4773219;29;20074;-90
2022/07/24 11:19:31;;;;;;;0.20;0.10;;;;;;;;;;5503494;23;20087;-88
2022/07/24 11:22:16;;;;;;;0.20;0.20;;;;;;;;;;4880965;29;20115;-91
2022/07/24 11:25:22;;;;;;;0.35;0.25;;;;;;;;;;4876042;29;20036;-90
2022/07/24 11:31:24;;;;;;;0.20;0.10;;;;;;;;;;4892881;29;20577;-90
2022/07/24 11:33:50;;;;;;;0.22;0.20;;;;;;;;;;4910046;23;20076;-90
2022/07/24 11:36:28;;;;;;;0.30;0.20;;;;;;;;;;4873153;29;20041;-87
2022/07/24 11:39:27;;;;;;;0.63;0.30;;;;;;;;;;4865637;29;20534;-90
2022/07/24 11:41:59;;;;;;;0.20;0.10;;;;;;;;;;4877130;29;20041;-89
2022/07/24 11:54:01;;;;;;;0.20;0.10;;;;;;;;;;4939411;23;20502;-88
2022/07/24 11:56:49;;;;;;;;;;;;;;;;;;;;;
2022/07/24 11:59:34;;;;;;;0.20;0.10;;;;;;;;;;4910075;29;20036;-91
2022/07/24 12:02:22;;;;;;;0.20;0.10;;;;;;;;;;4893373;29;20126;-92
2022/07/24 12:04:49;;;;;;;0.65;0.65;;;;;;;;;;4893337;29;20067;-88
2022/07/24 12:07:17;;;;;;;0.20;0.10;;;;;;;;;;4914993;23;20048;-86
2022/07/24 12:09:44;;;;;;;0.20;0.10;;;;;;;;;;4896497;29;20534;-86
2022/07/24 12:12:21;;;;;;;0.20;0.10;;;;;;;;;;4897805;29;20032;-89
2022/07/24 12:14:47;;;;;;;0.28;0.28;;;;;;;;;;4889144;29;20526;-87
2022/07/24 12:17:13;;;;;;;0.20;0.10;;;;;;;;;;4873613;29;20380;-85
2022/07/24 12:19:50;;;;;;;0.20;0.10;;;;;;;;;;4868787;29;20045;-88
2022/07/24 12:22:16;;;;;;;0.28;0.10;;;;;;;;;;4880719;29;20059;-86
2022/07/24 12:24:42;;;;;;;0.20;0.10;;;;;;;;;;4884693;29;20063;-86
2022/07/24 12:27:08;;;;;;;0.20;0.10;;;;;;;;;;4854687;29;20041;-88
2022/07/24 12:29:41;;;;;;;0.20;0.10;;;;;;;;;;4887421;29;20040;-86
2022/07/24 12:32:17;;;;;;;0.20;0.10;;;;;;;;;;4887173;29;20439;-88
2022/07/24 12:34:44;;;;;;;0.55;0.45;;;;;;;;;;4867411;29;20079;-86
2022/07/24 12:37:20;;;;;;;0.30;0.20;;;;;;;;;;4869931;29;20104;-87
2022/07/24 12:39:50;;;;;;;0.20;0.10;;;;;;;;;;4871475;29;20057;-87
2022/07/24 12:42:17;;;;;;;0.30;0.20;;;;;;;;;;4870538;29;20052;-87
2022/07/24 12:44:44;;;;;;;0.20;0.10;;;;;;;;;;4852934;29;20043;-87
2022/07/24 12:47:11;;;;;;;0.20;0.10;;;;;;;;;;4873927;29;20044;-85
2022/07/24 12:49:45;;;;;;;0.20;0.10;;;;;;;;;;4868777;29;20045;-87
2022/07/24 12:52:23;;;;;;;0.20;0.10;;;;;;;;;;4872483;29;20093;-87
2022/07/24 12:54:50;;;;;;;0.63;0.50;;;;;;;;;;4869306;29;20047;-88
2022/07/24 12:57:18;;;;;;;0.20;0.20;;;;;;;;;;4881305;29;20087;-86
2022/07/24 12:59:45;;;;;;;0.20;0.10;;;;;;;;;;4881588;29;20409;-88
2022/07/24 13:02:22;;;;;;;0.47;0.10;;;;;;;;;;4883545;29;20548;-87
2022/07/24 13:04:58;;;;;;;0.20;0.10;;;;;;;;;;4880352;29;20056;-85
2022/07/24 13:07:25;;;;;;;0.30;0.30;;;;;;;;;;4878840;29;20087;-87
2022/07/24 13:09:52;;;;;;;0.20;0.10;;;;;;;;;;4863833;29;20080;-87
2022/07/24 13:12:19;;;;;;;0.20;0.10;;;;;;;;;;4867035;29;20040;-87
2022/07/24 13:14:45;;;;;;;0.22;0.13;;;;;;;;;;4864942;29;20045;-86
2022/07/24 13:17:13;;;;;;;0.20;0.20;;;;;;;;;;4882121;29;20131;-87
2022/07/24 13:19:40;;;;;;;0.40;0.38;;;;;;;;;;4867327;29;20044;-90
2022/07/24 13:22:07;;;;;;;0.20;0.10;;;;;;;;;;4868000;29;20189;-86
2022/07/24 13:24:33;;;;;;;0.20;0.10;;;;;;;;;;4868114;29;20130;-86
2022/07/24 13:26:59;;;;;;;0.20;0.10;;;;;;;;;;4882834;29;20051;-87
2022/07/24 13:29:29;;;;;;;0.30;0.28;;;;;;;;;;4882249;29;20220;-88
2022/07/24 13:31:55;;;;;;;0.20;0.10;;;;;;;;;;4870794;29;20045;-88
2022/07/24 13:34:21;;;;;;;0.20;0.10;;;;;;;;;;4883794;29;20052;-85
2022/07/24 13:36:48;;;;;;;0.20;0.10;;;;;;;;;;4867494;29;20515;-85
2022/07/24 13:39:14;;;;;;;0.20;0.10;;;;;;;;;;4867006;29;20055;-86
2022/07/24 13:41:40;;;;;;;0.20;0.10;;;;;;;;;;4894662;29;20048;-87
2022/07/24 13:44:06;;;;;;;0.20;0.20;;;;;;;;;;4855983;29;20061;-84
2022/07/24 13:46:33;;;;;;;0.20;0.10;;;;;;;;;;4862261;29;20686;-85
2022/07/24 13:49:02;;;;;;;0.73;0.40;;;;;;;;;;4895366;29;20109;-85
2022/07/24 13:51:29;;;;;;;0.20;0.10;;;;;;;;;;4865095;29;20644;-86
2022/07/24 13:53:55;;;;;;;0.20;0.10;;;;;;;;;;4870915;29;20092;-86
2022/07/24 13:56:22;;;;;;;0.30;0.20;;;;;;;;;;4870307;29;20051;-83
2022/07/24 13:58:48;;;;;;;0.20;0.20;;;;;;;;;;4874685;29;20097;-87
2022/07/24 14:01:17;;;;;;;0.20;0.10;;;;;;;;;;4883059;29;20037;-86
2022/07/24 14:03:43;;;;;;;0.20;0.10;;;;;;;;;;4871279;29;20047;-84
2022/07/24 14:06:09;;;;;;;0.20;0.10;;;;;;;;;;4887397;29;20385;-84
2022/07/24 14:08:36;;;;;;;0.20;0.10;;;;;;;;;;4870623;29;20072;-88
2022/07/24 14:11:02;;;;;;;0.20;0.10;;;;;;;;;;4878166;29;20044;-89
2022/07/24 14:13:28;;;;;;;0.20;0.10;;;;;;;;;;4867675;29;20053;-84
2022/07/24 14:15:54;;;;;;;0.40;0.35;;;;;;;;;;4894918;29;20150;-85
2022/07/24 14:18:21;;;;;;;0.20;0.10;;;;;;;;;;4852049;29;20055;-82
2022/07/24 14:20:47;;;;;;;0.20;0.10;;;;;;;;;;4879188;29;20052;-86
2022/07/24 14:23:13;;;;;;;0.20;0.10;;;;;;;;;;4868408;29;20347;-86
2022/07/24 14:25:39;;;;;;;0.20;0.10;;;;;;;;;;4865865;29;20072;-83
2022/07/24 14:28:05;;;;;;;0.20;0.10;;;;;;;;;;4884602;29;20487;-84
2022/07/24 14:30:34;;;;;;;0.20;0.10;;;;;;;;;;4868661;29;20052;-85
2022/07/24 14:33:00;;;;;;;0.20;0.10;;;;;;;;;;4863551;29;20044;-83
2022/07/24 14:35:27;;;;;;;0.20;0.10;;;;;;;;;;4894284;29;20040;-84
2022/07/24 14:37:53;;;;;;;0.20;0.20;;;;;;;;;;4881124;29;20049;-84
2022/07/24 14:40:19;;;;;;;0.20;0.10;;;;;;;;;;4868246;29;20071;-86
2022/07/24 14:42:45;;;;;;;0.20;0.10;;;;;;;;;;4854935;29;20041;-85
2022/07/24 14:45:11;;;;;;;0.20;0.10;;;;;;;;;;4896033;29;20040;-85
2022/07/24 14:47:38;;;;;;;2.38;2.17;;;;;;;;;;4870000;29;20044;-85
2022/07/24 14:50:06;;;;;;;0.20;0.10;;;;;;;;;;4869363;29;20290;-84
2022/07/24 14:52:32;;;;;;;0.20;0.20;;;;;;;;;;4866392;29;20048;-83
2022/07/24 14:54:59;;;;;;;0.20;0.10;;;;;;;;;;4864243;29;20091;-87
2022/07/24 14:57:25;;;;;;;0.20;0.20;;;;;;;;;;4855617;29;20056;-84
2022/07/24 14:59:51;;;;;;;0.20;0.10;;;;;;;;;;4869969;29;20127;-84
2022/07/24 15:02:17;;;;;;;0.20;0.10;;;;;;;;;;4869765;29;20065;-87
2022/07/24 15:04:43;;;;;;;0.20;0.10;;;;;;;;;;4865373;29;20096;-86
2022/07/24 15:07:10;;;;;;;0.20;0.10;;;;;;;;;;4863764;29;20045;-84
2022/07/24 15:09:36;;;;;;;1.15;0.75;;;;;;;;;;4869590;29;20047;-81
2022/07/24 15:12:03;;;;;;;0.20;0.20;;;;;;;;;;4860015;29;20063;-84
2022/07/24 15:14:29;;;;;;;0.20;0.10;;;;;;;;;;4860668;29;20091;-85
2022/07/24 15:16:55;;;;;;;0.20;0.10;;;;;;;;;;4851474;29;20112;-84
2022/07/24 15:19:21;;;;;;;0.20;0.20;;;;;;;;;;4859662;29;20048;-84
2022/07/24 15:21:50;;;;;;;0.20;0.13;;;;;;;;;;4845773;29;20053;-86
2022/07/24 15:24:16;;;;;;;0.20;0.10;;;;;;;;;;4853914;29;20036;-83
2022/07/24 15:26:42;;;;;;;0.20;0.10;;;;;;;;;;4863005;29;20067;-88
2022/07/24 15:29:08;;;;;;;0.20;0.10;;;;;;;;;;4870719;29;20851;-83
2022/07/24 15:31:37;;;;;;;0.20;0.10;;;;;;;;;;4858837;29;20060;-85
2022/07/24 15:34:03;;;;;;;0.20;0.10;;;;;;;;;;4858241;29;20048;-85
2022/07/24 15:36:29;;;;;;;0.20;0.10;;;;;;;;;;4861304;29;20155;-86
2022/07/24 15:38:58;;;;;;;0.20;0.10;;;;;;;;;;4853958;29;20044;-84
2022/07/24 15:41:24;;;;;;;0.20;0.10;;;;;;;;;;4873648;29;20097;-84
2022/07/24 15:43:50;;;;;;;0.20;0.10;;;;;;;;;;4870698;29;20127;-84
2022/07/24 15:46:19;;;;;;;0.20;0.10;;;;;;;;;;4863756;29;20049;-85
2022/07/24 15:48:47;;;;;;;0.20;0.13;;;;;;;;;;4892037;29;20036;-84
2022/07/24 15:51:13;;;;;;;0.20;0.10;;;;;;;;;;4858291;29;20049;-85
2022/07/24 15:53:39;;;;;;;0.20;0.10;;;;;;;;;;4869428;29;20160;-83
2022/07/24 15:56:05;;;;;;;0.20;0.10;;;;;;;;;;4857254;29;20097;-85
2022/07/24 15:58:31;;;;;;;0.25;0.20;;;;;;;;;;4863608;29;20052;-85
2022/07/24 16:00:57;;;;;;;0.20;0.10;;;;;;;;;;4871861;29;20045;-87
2022/07/24 16:03:24;;;;;;;0.50;0.20;;;;;;;;;;4878582;29;20086;-88
2022/07/24 16:05:50;;;;;;;0.20;0.10;;;;;;;;;;4869496;29;20052;-88
2022/07/24 16:08:16;;;;;;;0.20;0.10;;;;;;;;;;4887444;29;20063;-87
2022/07/24 16:10:42;;;;;;;0.20;0.10;;;;;;;;;;4876776;29;20036;-86
2022/07/24 16:13:08;;;;;;;0.20;0.10;;;;;;;;;;4882062;29;20055;-84
2022/07/24 16:15:36;;;;;;;0.30;0.30;;;;;;;;;;4889173;29;20048;-87
2022/07/24 16:18:03;;;;;;;0.20;0.10;;;;;;;;;;4880531;29;20092;-86
2022/07/24 16:20:30;;;;;;;0.20;0.10;;;;;;;;;;4877827;29;20743;-86
2022/07/24 16:22:56;;;;;;;0.20;0.10;;;;;;;;;;4865251;29;20049;-86
2022/07/24 16:25:25;;;;;;;0.30;0.13;;;;;;;;;;4862119;29;20123;-84
2022/07/24 16:27:51;;;;;;;0.20;0.10;;;;;;;;;;4865340;29;20048;-89
2022/07/24 16:30:17;;;;;;;0.20;0.20;;;;;;;;;;4865287;29;20404;-87
2022/07/24 16:32:43;;;;;;;0.20;0.10;;;;;;;;;;4864267;29;20049;-86
2022/07/24 16:35:09;;;;;;;0.20;0.20;;;;;;;;;;4858375;29;20166;-86
2022/07/24 16:37:35;;;;;;;0.20;0.20;;;;;;;;;;4869438;29;20105;-85
2022/07/24 16:40:03;;;;;;;0.20;0.10;;;;;;;;;;4858713;29;20044;-84
2022/07/24 16:42:30;;;;;;;0.35;0.35;;;;;;;;;;4896504;29;20052;-85
2022/07/24 16:44:56;;;;;;;0.20;0.10;;;;;;;;;;4850682;29;20120;-85
2022/07/24 16:47:23;;;;;;;0.20;0.10;;;;;;;;;;4875102;29;20119;-86
2022/07/24 16:49:49;;;;;;;0.20;0.10;;;;;;;;;;4869666;29;20041;-85
2022/07/24 16:52:15;;;;;;;2.10;0.68;;;;;;;;;;4868318;29;20076;-83
2022/07/24 16:54:41;;;;;;;0.20;0.10;;;;;;;;;;4869299;29;20072;-85
2022/07/24 16:57:08;;;;;;;0.20;0.10;;;;;;;;;;4880766;29;20558;-86
2022/07/24 16:59:34;;;;;;;0.20;0.10;;;;;;;;;;4858742;29;20092;-84
2022/07/24 17:02:00;;;;;;;0.20;0.20;;;;;;;;;;4883969;29;20129;-82
2022/07/24 17:04:26;;;;;;;0.20;0.10;;;;;;;;;;4871615;29;20156;-83
2022/07/24 17:06:52;;;;;;;0.20;0.13;;;;;;;;;;4881721;29;20045;-85
2022/07/24 17:09:19;;;;;;;0.20;0.10;;;;;;;;;;4860599;29;20051;-85
2022/07/24 17:11:45;;;;;;;0.20;0.10;;;;;;;;;;4882363;29;20071;-84
2022/07/24 17:14:12;;;;;;;0.20;0.10;;;;;;;;;;4887218;29;20060;-83